Wetterdaten: Woche 22.05.17 - 28.05.17 (KW21)
Datum Zeit Temp. A. Pool Temp. Feuchte A. Luftdruck Regen Wind Richtung Sonnenschein ET UV Solar Taupunkt Windchill Windben Empfang
22.05.2017 00:00 10,2 C 20,6 C 87 % 1021,6 hPa 0,0 l/m 0,2 km/h (0 Bft) O-SO 0,00 h 0,000 mm 0,0 UV-I 0 W/m 8,2 C 10,2 C 0,6 km/h (0 Bft) 95,27 %
22.05.2017 01:00 9,5 C 20,3 C 89 % 1021,1 hPa 0,0 l/m 1,9 km/h (1 Bft) O-SO 0,00 h 0,000 mm 0,0 UV-I 0 W/m 7,8 C 9,5 C 3,3 km/h (1 Bft) 97,58 %
22.05.2017 02:00 8,8 C 20,0 C 92 % 1020,6 hPa 0,0 l/m 2,9 km/h (1 Bft) O-NO 0,00 h 0,000 mm 0,0 UV-I 0 W/m 7,5 C 8,8 C 4,3 km/h (1 Bft) 95,11 %
22.05.2017 03:00 9,1 C 20,0 C 91 % 1020,0 hPa 0,0 l/m 3,5 km/h (1 Bft) O-NO 0,00 h 0,000 mm 0,0 UV-I 0 W/m 7,7 C 9,1 C 4,9 km/h (1 Bft) 96,49 %
22.05.2017 04:00 8,9 C 20,0 C 92 % 1019,5 hPa 0,0 l/m 3,2 km/h (1 Bft) O-NO 0,00 h 0,000 mm 0,0 UV-I 0 W/m 7,6 C 8,9 C 4,7 km/h (1 Bft) 96,41 %
22.05.2017 05:00 8,6 C 19,8 C 93 % 1019,2 hPa 0,0 l/m 3,7 km/h (1 Bft) NO 0,43 h 0,000 mm 0,0 UV-I 21 W/m 7,6 C 8,6 C 5,7 km/h (1 Bft) 97,67 %
22.05.2017 06:00 9,5 C 19,4 C 94 % 1019,1 hPa 0,0 l/m 7,2 km/h (2 Bft) O-NO 0,75 h 0,025 mm 0,0 UV-I 109 W/m 8,6 C 8,6 C 11,7 km/h (2 Bft) 95,13 %
22.05.2017 07:00 11,1 C 19,4 C 91 % 1018,9 hPa 0,0 l/m 7,4 km/h (2 Bft) NO 1,02 h 0,051 mm 0,6 UV-I 275 W/m 9,6 C 10,3 C 11,3 km/h (2 Bft) 97,24 %
22.05.2017 08:00 13,6 C 19,5 C 82 % 1018,9 hPa 0,0 l/m 12,2 km/h (2 Bft) NO 0,98 h 0,153 mm 1,2 UV-I 455 W/m 10,5 C 10,7 C 18,2 km/h (3 Bft) 95,95 %
22.05.2017 09:00 15,8 C 20,0 C 72 % 1018,9 hPa 0,0 l/m 13,7 km/h (3 Bft) NO 1,00 h 0,254 mm 2,3 UV-I 633 W/m 10,7 C 12,6 C 20,5 km/h (4 Bft) 96,02 %
22.05.2017 10:00 17,3 C 20,0 C 67 % 1018,6 hPa 0,0 l/m 13,6 km/h (3 Bft) O-NO 1,00 h 0,381 mm 3,2 UV-I 702 W/m 11,1 C 14,4 C 20,4 km/h (4 Bft) 97,53 %
22.05.2017 11:00 18,4 C 20,0 C 60 % 1018,2 hPa 0,0 l/m 16,0 km/h (3 Bft) O-NO 1,00 h 0,431 mm 3,9 UV-I 726 W/m 10,5 C 15,2 C 22,6 km/h (4 Bft) 97,48 %
22.05.2017 12:00 19,2 C 20,3 C 56 % 1017,8 hPa 0,0 l/m 12,4 km/h (3 Bft) NO 0,87 h 0,483 mm 3,7 UV-I 637 W/m 10,2 C 17,1 C 18,4 km/h (3 Bft) 94,98 %
22.05.2017 13:00 20,5 C 20,6 C 53 % 1017,5 hPa 0,0 l/m 11,5 km/h (2 Bft) NO 1,00 h 0,432 mm 4,6 UV-I 818 W/m 10,7 C 18,8 C 17,9 km/h (3 Bft) 95,57 %
22.05.2017 14:00 21,2 C 20,8 C 47 % 1017,0 hPa 0,0 l/m 12,5 km/h (3 Bft) NO 0,93 h 0,533 mm 4,0 UV-I 725 W/m 9,3 C 19,4 C 18,3 km/h (3 Bft) 96,53 %
22.05.2017 15:00 22,2 C 21,1 C 46 % 1016,3 hPa 0,0 l/m 12,1 km/h (2 Bft) O-NO 1,00 h 0,534 mm 3,6 UV-I 756 W/m 10,1 C 20,5 C 18,9 km/h (3 Bft) 98,44 %
22.05.2017 16:00 22,5 C 21,1 C 48 % 1015,9 hPa 0,0 l/m 10,4 km/h (2 Bft) NO 1,00 h 0,533 mm 2,3 UV-I 608 W/m 10,8 C 21,3 C 16,6 km/h (3 Bft) 96,99 %
22.05.2017 17:00 21,9 C 21,1 C 49 % 1015,5 hPa 0,0 l/m 8,9 km/h (2 Bft) O-NO 0,37 h 0,432 mm 1,1 UV-I 295 W/m 10,5 C 21,0 C 14,0 km/h (3 Bft) 94,96 %
22.05.2017 18:00 21,0 C 21,1 C 52 % 1015,4 hPa 0,0 l/m 4,9 km/h (1 Bft) O 0,27 h 0,254 mm 0,5 UV-I 179 W/m 10,7 C 20,9 C 8,0 km/h (2 Bft) 96,28 %
22.05.2017 19:00 21,4 C 21,1 C 50 % 1015,1 hPa 0,0 l/m 6,4 km/h (2 Bft) O 1,00 h 0,152 mm 0,0 UV-I 162 W/m 10,5 C 21,1 C 10,2 km/h (2 Bft) 97,26 %
22.05.2017 20:00 19,5 C 21,1 C 57 % 1014,9 hPa 0,0 l/m 3,7 km/h (1 Bft) O-NO 0,57 h 0,153 mm 0,0 UV-I 36 W/m 10,6 C 19,5 C 5,5 km/h (1 Bft) 97,03 %
22.05.2017 21:00 17,3 C 21,1 C 65 % 1015,1 hPa 0,0 l/m 2,0 km/h (1 Bft) O-NO 0,00 h 0,050 mm 0,0 UV-I 1 W/m 10,6 C 17,3 C 3,3 km/h (1 Bft) 96,77 %
22.05.2017 22:00 15,5 C 21,1 C 72 % 1015,0 hPa 0,0 l/m 1,8 km/h (1 Bft) O-NO 0,00 h 0,026 mm 0,0 UV-I 0 W/m 10,4 C 15,5 C 3,1 km/h (1 Bft) 95,84 %
22.05.2017 23:00 13,9 C 21,1 C 80 % 1015,2 hPa 0,0 l/m 1,2 km/h (1 Bft) O-SO 0,00 h 0,025 mm 0,0 UV-I 0 W/m 10,6 C 13,9 C 2,3 km/h (1 Bft) 97,98 %
23.05.2017 00:00 12,7 C 20,6 C 84 % 1015,4 hPa 0,0 l/m 1,3 km/h (1 Bft) O-SO 0,00 h 0,000 mm 0,0 UV-I 0 W/m 10,1 C 12,7 C 2,6 km/h (1 Bft) 97,25 %
23.05.2017 01:00 11,7 C 20,6 C 87 % 1015,3 hPa 0,0 l/m 1,9 km/h (1 Bft) O 0,00 h 0,000 mm 0,0 UV-I 0 W/m 9,6 C 11,7 C 3,6 km/h (1 Bft) 96,78 %
23.05.2017 02:00 11,6 C 20,6 C 87 % 1015,1 hPa 0,0 l/m 2,1 km/h (1 Bft) O 0,00 h 0,000 mm 0,0 UV-I 0 W/m 9,5 C 11,6 C 3,8 km/h (1 Bft) 97,17 %
23.05.2017 03:00 11,4 C 20,6 C 87 % 1015,2 hPa 0,0 l/m 4,3 km/h (1 Bft) S-SW 0,00 h 0,000 mm 0,0 UV-I 0 W/m 9,3 C 11,4 C 6,7 km/h (2 Bft) 98,78 %
23.05.2017 04:00 11,6 C 20,4 C 84 % 1014,9 hPa 0,0 l/m 3,3 km/h (1 Bft) S-SW 0,00 h 0,000 mm 0,0 UV-I 0 W/m 9,0 C 11,6 C 5,6 km/h (1 Bft) 95,33 %
23.05.2017 05:00 10,1 C 20,0 C 90 % 1015,1 hPa 0,0 l/m 1,7 km/h (1 Bft) S-SW 0,00 h 0,000 mm 0,0 UV-I 15 W/m 8,5 C 10,1 C 3,3 km/h (1 Bft) 97,80 %
23.05.2017 06:00 11,1 C 20,0 C 89 % 1015,5 hPa 0,0 l/m 1,1 km/h (1 Bft) S-SW 0,75 h 0,000 mm 0,0 UV-I 110 W/m 9,4 C 11,1 C 2,3 km/h (1 Bft) 96,12 %
23.05.2017 07:00 13,7 C 20,0 C 83 % 1015,8 hPa 0,0 l/m 1,2 km/h (1 Bft) SW 1,00 h 0,051 mm 0,6 UV-I 286 W/m 10,8 C 13,7 C 2,6 km/h (1 Bft) 95,90 %
23.05.2017 08:00 16,0 C 20,1 C 77 % 1016,2 hPa 0,0 l/m 4,4 km/h (1 Bft) W-SW 0,63 h 0,152 mm 1,0 UV-I 348 W/m 12,1 C 15,9 C 7,5 km/h (2 Bft) 95,80 %
23.05.2017 09:00 17,5 C 20,3 C 72 % 1016,5 hPa 0,0 l/m 4,3 km/h (1 Bft) S-SW 0,30 h 0,203 mm 1,3 UV-I 316 W/m 12,3 C 17,4 C 7,0 km/h (2 Bft) 97,49 %
23.05.2017 10:00 18,7 C 20,6 C 69 % 1016,5 hPa 0,0 l/m 4,5 km/h (1 Bft) W-SW 0,63 h 0,204 mm 3,0 UV-I 606 W/m 12,9 C 18,6 C 7,9 km/h (2 Bft) 95,09 %
23.05.2017 11:00 20,5 C 20,6 C 63 % 1016,3 hPa 0,0 l/m 4,8 km/h (1 Bft) W 0,50 h 0,355 mm 3,3 UV-I 594 W/m 13,3 C 20,4 C 9,3 km/h (2 Bft) 95,77 %
23.05.2017 12:00 22,2 C 20,9 C 57 % 1015,8 hPa 0,0 l/m 6,2 km/h (2 Bft) W-SW 0,90 h 0,381 mm 4,9 UV-I 838 W/m 13,1 C 21,8 C 12,8 km/h (3 Bft) 95,97 %
23.05.2017 13:00 23,1 C 21,1 C 48 % 1015,5 hPa 0,0 l/m 12,9 km/h (3 Bft) W-SW 0,73 h 0,534 mm 4,1 UV-I 700 W/m 11,3 C 21,5 C 21,7 km/h (4 Bft) 97,01 %
23.05.2017 14:00 23,8 C 21,6 C 48 % 1015,3 hPa 0,0 l/m 14,4 km/h (3 Bft) W-SW 1,00 h 0,533 mm 4,3 UV-I 845 W/m 12,0 C 22,0 C 24,0 km/h (4 Bft) 95,15 %
23.05.2017 15:00 23,8 C 21,8 C 42 % 1015,1 hPa 0,0 l/m 17,7 km/h (3 Bft) W-SW 0,87 h 0,635 mm 3,4 UV-I 688 W/m 10,0 C 21,5 C 28,2 km/h (4 Bft) 94,77 %
23.05.2017 16:00 24,3 C 22,2 C 39 % 1014,8 hPa 0,0 l/m 15,8 km/h (3 Bft) W-SW 1,00 h 0,584 mm 2,3 UV-I 601 W/m 9,6 C 22,4 C 25,6 km/h (4 Bft) 97,21 %
23.05.2017 17:00 23,9 C 22,2 C 39 % 1014,7 hPa 0,0 l/m 11,6 km/h (2 Bft) W-SW 0,90 h 0,508 mm 1,2 UV-I 387 W/m 9,2 C 22,6 C 20,3 km/h (4 Bft) 97,88 %
23.05.2017 18:00 23,0 C 22,2 C 44 % 1014,9 hPa 0,0 l/m 7,9 km/h (2 Bft) W 0,83 h 0,356 mm 0,6 UV-I 229 W/m 9,9 C 22,4 C 15,6 km/h (3 Bft) 95,47 %
23.05.2017 19:00 21,8 C 22,2 C 48 % 1015,3 hPa 0,0 l/m 4,8 km/h (1 Bft) W 0,30 h 0,203 mm 0,0 UV-I 90 W/m 10,3 C 21,8 C 10,3 km/h (2 Bft) 94,12 %
23.05.2017 20:00 19,9 C 22,2 C 55 % 1015,4 hPa 0,0 l/m 3,5 km/h (1 Bft) W-SW 0,03 h 0,102 mm 0,0 UV-I 14 W/m 10,6 C 19,9 C 5,7 km/h (1 Bft) 96,62 %
23.05.2017 21:00 17,7 C 22,2 C 64 % 1015,9 hPa 0,0 l/m 2,9 km/h (1 Bft) S 0,00 h 0,025 mm 0,0 UV-I 0 W/m 10,8 C 17,7 C 5,5 km/h (1 Bft) 98,05 %
23.05.2017 22:00 17,1 C 21,9 C 67 % 1016,4 hPa 0,0 l/m 4,8 km/h (1 Bft) S-SW 0,00 h 0,025 mm 0,0 UV-I 0 W/m 10,9 C 17,0 C 7,3 km/h (2 Bft) 97,03 %
23.05.2017 23:00 17,6 C 21,7 C 66 % 1016,5 hPa 0,0 l/m 10,0 km/h (2 Bft) SW 0,00 h 0,026 mm 0,0 UV-I 0 W/m 11,2 C 16,0 C 15,6 km/h (3 Bft) 95,99 %
24.05.2017 00:00 17,0 C 21,7 C 68 % 1016,3 hPa 0,0 l/m 8,2 km/h (2 Bft) SW 0,00 h 0,000 mm 0,0 UV-I 0 W/m 11,1 C 16,1 C 12,8 km/h (3 Bft) 97,29 %
24.05.2017 01:00 17,0 C 21,6 C 69 % 1015,9 hPa 0,0 l/m 13,9 km/h (3 Bft) SW 0,00 h 0,051 mm 0,0 UV-I 0 W/m 11,3 C 14,0 C 20,7 km/h (4 Bft) 98,36 %
24.05.2017 02:00 16,8 C 21,1 C 71 % 1015,4 hPa 0,0 l/m 13,9 km/h (3 Bft) SW 0,00 h 0,051 mm 0,0 UV-I 0 W/m 11,6 C 13,8 C 20,9 km/h (4 Bft) 96,62 %
24.05.2017 03:00 16,4 C 21,1 C 74 % 1015,3 hPa 0,0 l/m 11,7 km/h (2 Bft) SW 0,00 h 0,050 mm 0,0 UV-I 0 W/m 11,8 C 14,1 C 17,9 km/h (3 Bft) 96,62 %
24.05.2017 04:00 16,2 C 21,1 C 77 % 1015,3 hPa 0,0 l/m 11,8 km/h (2 Bft) SW 0,00 h 0,051 mm 0,0 UV-I 0 W/m 12,1 C 13,7 C 17,3 km/h (3 Bft) 97,40 %
24.05.2017 05:00 15,9 C 21,1 C 79 % 1015,5 hPa 0,0 l/m 10,3 km/h (2 Bft) W-SW 0,00 h 0,051 mm 0,0 UV-I 7 W/m 12,1 C 14,0 C 15,1 km/h (3 Bft) 98,54 %
24.05.2017 06:00 15,4 C 21,1 C 85 % 1016,0 hPa 0,6 l/m 8,6 km/h (2 Bft) W-SW 0,00 h 0,025 mm 0,0 UV-I 23 W/m 12,9 C 14,3 C 13,4 km/h (3 Bft) 96,85 %
24.05.2017 07:00 15,4 C 20,8 C 89 % 1016,5 hPa 0,0 l/m 9,9 km/h (2 Bft) SW 0,00 h 0,026 mm 0,0 UV-I 66 W/m 13,5 C 13,6 C 14,6 km/h (3 Bft) 95,44 %
24.05.2017 08:00 16,8 C 21,0 C 82 % 1017,0 hPa 0,0 l/m 12,2 km/h (2 Bft) W-SW 0,17 h 0,051 mm 0,7 UV-I 218 W/m 13,8 C 14,4 C 19,8 km/h (3 Bft) 97,36 %
24.05.2017 09:00 18,0 C 21,0 C 75 % 1017,2 hPa 0,0 l/m 15,8 km/h (3 Bft) W 0,63 h 0,152 mm 1,5 UV-I 406 W/m 13,4 C 14,7 C 25,7 km/h (4 Bft) 98,61 %
24.05.2017 10:00 18,6 C 21,1 C 68 % 1017,3 hPa 0,0 l/m 16,3 km/h (3 Bft) W 0,80 h 0,279 mm 2,3 UV-I 524 W/m 12,6 C 15,3 C 27,9 km/h (4 Bft) 96,90 %
24.05.2017 11:00 18,5 C 21,1 C 63 % 1017,5 hPa 0,0 l/m 15,6 km/h (3 Bft) W-SW 0,63 h 0,356 mm 2,6 UV-I 483 W/m 11,3 C 15,3 C 27,1 km/h (4 Bft) 96,96 %
24.05.2017 12:00 17,7 C 21,1 C 65 % 1017,7 hPa 0,0 l/m 11,7 km/h (2 Bft) W 0,00 h 0,356 mm 1,8 UV-I 316 W/m 11,0 C 15,6 C 22,0 km/h (4 Bft) 95,82 %
24.05.2017 13:00 18,3 C 21,1 C 62 % 1017,7 hPa 0,0 l/m 17,7 km/h (3 Bft) W-SW 0,40 h 0,228 mm 3,0 UV-I 488 W/m 10,9 C 14,7 C 28,9 km/h (5 Bft) 97,92 %
24.05.2017 14:00 18,6 C 21,1 C 56 % 1017,6 hPa 0,0 l/m 19,7 km/h (3 Bft) W-SW 0,67 h 0,381 mm 3,7 UV-I 794 W/m 9,6 C 14,5 C 31,5 km/h (5 Bft) 96,98 %
24.05.2017 15:00 19,4 C 21,7 C 46 % 1017,5 hPa 0,0 l/m 16,3 km/h (3 Bft) W-SW 0,80 h 0,508 mm 3,1 UV-I 668 W/m 7,6 C 16,3 C 28,7 km/h (4 Bft) 96,42 %
24.05.2017 16:00 18,3 C 21,7 C 49 % 1017,6 hPa 0,0 l/m 12,5 km/h (3 Bft) W-SW 0,00 h 0,483 mm 1,1 UV-I 207 W/m 7,3 C 16,0 C 22,0 km/h (4 Bft) 98,49 %
24.05.2017 17:00 17,7 C 21,7 C 53 % 1017,5 hPa 0,0 l/m 13,9 km/h (3 Bft) W-SW 0,00 h 0,203 mm 0,0 UV-I 58 W/m 8,0 C 14,8 C 21,7 km/h (4 Bft) 97,04 %
24.05.2017 18:00 17,4 C 21,1 C 54 % 1017,5 hPa 0,0 l/m 11,1 km/h (2 Bft) W-SW 0,00 h 0,127 mm 0,0 UV-I 53 W/m 8,0 C 15,4 C 20,3 km/h (4 Bft) 97,29 %
24.05.2017 19:00 16,9 C 21,1 C 56 % 1017,9 hPa 0,0 l/m 9,5 km/h (2 Bft) W-SW 0,00 h 0,102 mm 0,0 UV-I 27 W/m 8,2 C 15,5 C 18,0 km/h (3 Bft) 95,77 %
24.05.2017 20:00 16,4 C 21,1 C 61 % 1017,9 hPa 0,0 l/m 6,9 km/h (2 Bft) W-SW 0,00 h 0,076 mm 0,0 UV-I 10 W/m 8,8 C 15,8 C 11,9 km/h (2 Bft) 97,85 %
24.05.2017 21:00 14,3 C 21,1 C 74 % 1018,3 hPa 2,8 l/m 11,2 km/h (2 Bft) SW 0,00 h 0,051 mm 0,0 UV-I 0 W/m 9,7 C 12,0 C 19,9 km/h (4 Bft) 96,03 %
24.05.2017 22:00 11,3 C 20,8 C 93 % 1019,2 hPa 1,4 l/m 4,6 km/h (1 Bft) W 0,00 h 0,050 mm 0,0 UV-I 0 W/m 10,2 C 11,1 C 9,4 km/h (2 Bft) 96,62 %
24.05.2017 23:00 11,1 C 20,6 C 94 % 1019,8 hPa 1,6 l/m 8,2 km/h (2 Bft) W-SW 0,00 h 0,000 mm 0,0 UV-I 0 W/m 10,2 C 9,9 C 13,5 km/h (3 Bft) 96,49 %
25.05.2017 00:00 11,0 C 20,6 C 94 % 1020,0 hPa 0,0 l/m 7,0 km/h (2 Bft) S-SW 0,00 h 0,000 mm 0,0 UV-I 0 W/m 10,1 C 10,3 C 11,4 km/h (2 Bft) 98,17 %
25.05.2017 01:00 10,9 C 20,6 C 95 % 1020,2 hPa 0,0 l/m 4,4 km/h (1 Bft) S-SW 0,00 h 0,000 mm 0,0 UV-I 0 W/m 10,1 C 10,9 C 6,7 km/h (2 Bft) 96,84 %
25.05.2017 02:00 10,9 C 20,6 C 94 % 1020,3 hPa 0,0 l/m 5,0 km/h (1 Bft) W-SW 0,00 h 0,000 mm 0,0 UV-I 0 W/m 9,9 C 10,9 C 8,1 km/h (2 Bft) 96,47 %
25.05.2017 03:00 10,6 C 20,1 C 94 % 1020,2 hPa 0,0 l/m 5,1 km/h (1 Bft) W-SW 0,00 h 0,000 mm 0,0 UV-I 0 W/m 9,7 C 10,6 C 8,1 km/h (2 Bft) 96,86 %
25.05.2017 04:00 9,7 C 20,0 C 95 % 1020,2 hPa 0,0 l/m 2,9 km/h (1 Bft) W-SW 0,00 h 0,000 mm 0,0 UV-I 0 W/m 9,0 C 9,7 C 4,5 km/h (1 Bft) 98,61 %
25.05.2017 05:00 9,6 C 20,0 C 97 % 1020,5 hPa 0,0 l/m 3,4 km/h (1 Bft) W 0,20 h 0,000 mm 0,0 UV-I 18 W/m 9,1 C 9,6 C 5,6 km/h (1 Bft) 95,57 %
25.05.2017 06:00 10,4 C 20,0 C 97 % 1020,9 hPa 0,0 l/m 1,7 km/h (1 Bft) W 0,03 h 0,000 mm 0,0 UV-I 72 W/m 9,9 C 10,4 C 3,3 km/h (1 Bft) 97,32 %
25.05.2017 07:00 11,5 C 20,0 C 94 % 1021,1 hPa 0,0 l/m 3,6 km/h (1 Bft) W-SW 0,83 h 0,025 mm 0,5 UV-I 228 W/m 10,5 C 11,4 C 6,6 km/h (2 Bft) 96,28 %
25.05.2017 08:00 12,6 C 20,0 C 87 % 1021,3 hPa 0,0 l/m 5,1 km/h (1 Bft) SW 0,80 h 0,102 mm 1,2 UV-I 454 W/m 10,5 C 12,3 C 9,4 km/h (2 Bft) 97,61 %
25.05.2017 09:00 14,0 C 20,1 C 77 % 1021,3 hPa 0,0 l/m 4,0 km/h (1 Bft) W 1,00 h 0,229 mm 2,5 UV-I 686 W/m 9,9 C 13,9 C 8,9 km/h (2 Bft) 96,13 %
25.05.2017 10:00 15,0 C 20,5 C 69 % 1021,2 hPa 0,0 l/m 6,8 km/h (2 Bft) W-SW 0,70 h 0,330 mm 3,3 UV-I 655 W/m 9,3 C 14,4 C 13,1 km/h (3 Bft) 98,23 %
25.05.2017 11:00 15,9 C 20,6 C 63 % 1021,0 hPa 0,2 l/m 6,5 km/h (2 Bft) W 0,67 h 0,355 mm 4,2 UV-I 751 W/m 9,0 C 15,3 C 12,5 km/h (3 Bft) 96,01 %
25.05.2017 12:00 17,1 C 20,6 C 58 % 1020,7 hPa 0,0 l/m 8,7 km/h (2 Bft) W-SW 0,70 h 0,432 mm 4,7 UV-I 792 W/m 8,7 C 15,9 C 16,1 km/h (3 Bft) 94,54 %
25.05.2017 13:00 17,7 C 21,0 C 53 % 1020,5 hPa 0,0 l/m 9,1 km/h (2 Bft) W-SW 0,70 h 0,457 mm 4,5 UV-I 678 W/m 8,0 C 16,4 C 18,3 km/h (3 Bft) 95,64 %
25.05.2017 14:00 17,6 C 21,1 C 57 % 1020,3 hPa 0,0 l/m 5,1 km/h (1 Bft) W 0,40 h 0,458 mm 3,5 UV-I 542 W/m 9,0 C 17,5 C 12,5 km/h (3 Bft) 97,32 %
25.05.2017 15:00 18,5 C 21,1 C 52 % 1020,0 hPa 0,0 l/m 5,5 km/h (1 Bft) W 0,93 h 0,355 mm 3,8 UV-I 807 W/m 8,4 C 18,2 C 12,3 km/h (3 Bft) 96,77 %
25.05.2017 16:00 18,9 C 21,1 C 50 % 1019,7 hPa 0,0 l/m 5,0 km/h (1 Bft) NW 1,00 h 0,432 mm 2,6 UV-I 653 W/m 8,3 C 18,8 C 12,1 km/h (2 Bft) 98,44 %
25.05.2017 17:00 18,7 C 21,1 C 50 % 1019,5 hPa 0,0 l/m 4,3 km/h (1 Bft) N-NW 0,80 h 0,381 mm 1,3 UV-I 461 W/m 8,2 C 18,7 C 9,7 km/h (2 Bft) 94,63 %
25.05.2017 18:00 18,4 C 21,1 C 50 % 1019,2 hPa 0,0 l/m 4,8 km/h (1 Bft) N-NW 0,87 h 0,279 mm 0,7 UV-I 300 W/m 7,7 C 18,2 C 10,0 km/h (2 Bft) 95,55 %
25.05.2017 19:00 16,8 C 21,1 C 55 % 1019,4 hPa 0,0 l/m 1,6 km/h (1 Bft) NW 0,33 h 0,204 mm 0,0 UV-I 99 W/m 7,8 C 16,8 C 4,8 km/h (1 Bft) 96,47 %
25.05.2017 20:00 15,4 C 21,8 C 63 % 1019,5 hPa 0,0 l/m 0,1 km/h (0 Bft) S-SW 0,07 h 0,076 mm 0,0 UV-I 15 W/m 8,3 C 15,4 C 0,5 km/h (0 Bft) 98,42 %
25.05.2017 21:00 13,7 C 21,7 C 74 % 1019,9 hPa 0,0 l/m 0,7 km/h (0 Bft) S-SW 0,00 h 0,025 mm 0,0 UV-I 4 W/m 9,1 C 13,7 C 1,9 km/h (1 Bft) 95,43 %
25.05.2017 22:00 13,7 C 21,3 C 73 % 1020,1 hPa 0,0 l/m 0,5 km/h (0 Bft) S-SW 0,00 h 0,000 mm 0,0 UV-I 0 W/m 8,9 C 13,7 C 2,1 km/h (1 Bft) 97,50 %
25.05.2017 23:00 13,6 C 21,1 C 74 % 1020,2 hPa 0,0 l/m 2,4 km/h (1 Bft) S-SW 0,00 h 0,000 mm 0,0 UV-I 0 W/m 9,0 C 13,6 C 4,5 km/h (1 Bft) 98,30 %
26.05.2017 00:00 13,3 C 21,1 C 77 % 1020,1 hPa 0,0 l/m 3,4 km/h (1 Bft) S-SW 0,00 h 0,000 mm 0,0 UV-I 0 W/m 9,3 C 13,3 C 5,5 km/h (1 Bft) 99,43 %
26.05.2017 01:00 13,2 C 21,1 C 76 % 1019,9 hPa 0,0 l/m 3,6 km/h (1 Bft) S-SW 0,00 h 0,025 mm 0,0 UV-I 0 W/m 9,1 C 13,2 C 6,0 km/h (2 Bft) 96,31 %
26.05.2017 02:00 12,8 C 21,0 C 80 % 1019,6 hPa 0,0 l/m 3,4 km/h (1 Bft) S-SW 0,00 h 0,026 mm 0,0 UV-I 0 W/m 9,4 C 12,8 C 5,7 km/h (1 Bft) 98,75 %
26.05.2017 03:00 12,3 C 20,6 C 83 % 1019,5 hPa 0,0 l/m 3,8 km/h (1 Bft) S-SW 0,00 h 0,025 mm 0,0 UV-I 0 W/m 9,5 C 12,3 C 6,2 km/h (2 Bft) 98,32 %
26.05.2017 04:00 11,2 C 20,6 C 86 % 1019,5 hPa 0,0 l/m 3,6 km/h (1 Bft) S-SW 0,00 h 0,000 mm 0,0 UV-I 4 W/m 8,8 C 11,2 C 6,6 km/h (2 Bft) 98,68 %
26.05.2017 05:00 10,5 C 20,6 C 87 % 1019,6 hPa 0,0 l/m 3,0 km/h (1 Bft) S-SW 0,10 h 0,000 mm 0,0 UV-I 16 W/m 8,4 C 10,5 C 5,1 km/h (1 Bft) 95,37 %
26.05.2017 06:00 10,8 C 20,6 C 87 % 1019,8 hPa 0,0 l/m 3,0 km/h (1 Bft) S-SW 0,27 h 0,026 mm 0,0 UV-I 83 W/m 8,7 C 10,8 C 5,5 km/h (1 Bft) 97,57 %
26.05.2017 07:00 13,2 C 20,6 C 80 % 1019,8 hPa 0,0 l/m 4,9 km/h (1 Bft) S-SW 0,93 h 0,050 mm 0,7 UV-I 285 W/m 9,9 C 13,0 C 8,6 km/h (2 Bft) 95,84 %
26.05.2017 08:00 15,3 C 20,6 C 72 % 1020,2 hPa 0,0 l/m 4,3 km/h (1 Bft) W 1,00 h 0,153 mm 1,4 UV-I 467 W/m 10,2 C 15,3 C 7,9 km/h (2 Bft) 95,36 %
26.05.2017 09:00 17,0 C 20,6 C 66 % 1020,3 hPa 0,0 l/m 3,5 km/h (1 Bft) W 1,00 h 0,254 mm 2,6 UV-I 628 W/m 10,5 C 16,9 C 7,0 km/h (2 Bft) 96,32 %
26.05.2017 10:00 18,3 C 20,8 C 59 % 1020,0 hPa 0,0 l/m 4,1 km/h (1 Bft) W-SW 1,00 h 0,355 mm 4,0 UV-I 768 W/m 10,2 C 18,3 C 8,6 km/h (2 Bft) 98,83 %
26.05.2017 11:00 19,4 C 21,1 C 54 % 1019,9 hPa 0,0 l/m 6,3 km/h (2 Bft) W-SW 0,90 h 0,458 mm 4,9 UV-I 827 W/m 9,9 C 19,0 C 12,6 km/h (3 Bft) 95,40 %
26.05.2017 12:00 20,4 C 21,3 C 50 % 1019,5 hPa 0,0 l/m 7,5 km/h (2 Bft) SW 0,97 h 0,482 mm 5,7 UV-I 906 W/m 9,5 C 19,8 C 14,4 km/h (3 Bft) 97,42 %
26.05.2017 13:00 21,1 C 21,7 C 47 % 1019,2 hPa 0,0 l/m 7,5 km/h (2 Bft) W-NW 1,00 h 0,559 mm 5,9 UV-I 915 W/m 9,2 C 20,5 C 14,3 km/h (3 Bft) 97,70 %
26.05.2017 14:00 21,7 C 22,2 C 45 % 1018,7 hPa 0,0 l/m 7,8 km/h (2 Bft) W-SW 1,00 h 0,584 mm 5,2 UV-I 850 W/m 9,1 C 21,1 C 14,3 km/h (3 Bft) 97,28 %
26.05.2017 15:00 22,6 C 22,2 C 42 % 1018,3 hPa 0,0 l/m 6,8 km/h (2 Bft) W 1,00 h 0,559 mm 4,0 UV-I 749 W/m 8,9 C 22,2 C 12,7 km/h (3 Bft) 95,36 %
26.05.2017 16:00 22,8 C 22,8 C 40 % 1017,9 hPa 0,0 l/m 8,1 km/h (2 Bft) W-SW 1,00 h 0,508 mm 2,7 UV-I 613 W/m 8,6 C 22,2 C 14,5 km/h (3 Bft) 96,19 %
26.05.2017 17:00 22,8 C 22,8 C 42 % 1017,5 hPa 0,0 l/m 3,7 km/h (1 Bft) W-SW 1,00 h 0,457 mm 1,5 UV-I 453 W/m 9,2 C 22,7 C 7,4 km/h (2 Bft) 97,97 %
26.05.2017 18:00 22,6 C 22,8 C 43 % 1017,3 hPa 0,0 l/m 3,1 km/h (1 Bft) W 0,87 h 0,305 mm 0,7 UV-I 268 W/m 9,3 C 22,6 C 6,4 km/h (2 Bft) 97,03 %
26.05.2017 19:00 21,0 C 22,8 C 53 % 1017,4 hPa 0,0 l/m 2,5 km/h (1 Bft) O-NO 0,07 h 0,203 mm 0,0 UV-I 74 W/m 10,9 C 21,0 C 4,7 km/h (1 Bft) 95,63 %
26.05.2017 20:00 19,7 C 22,8 C 57 % 1017,6 hPa 0,0 l/m 4,5 km/h (1 Bft) O 0,03 h 0,076 mm 0,0 UV-I 17 W/m 10,9 C 19,7 C 6,7 km/h (2 Bft) 94,57 %
26.05.2017 21:00 18,2 C 22,8 C 63 % 1017,9 hPa 0,0 l/m 1,7 km/h (1 Bft) O-SO 0,00 h 0,051 mm 0,0 UV-I 5 W/m 11,1 C 18,2 C 2,9 km/h (1 Bft) 95,70 %
26.05.2017 22:00 17,0 C 22,7 C 69 % 1018,4 hPa 0,0 l/m 0,1 km/h (0 Bft) O-SO 0,00 h 0,026 mm 0,0 UV-I 0 W/m 11,3 C 17,0 C 0,3 km/h (0 Bft) 96,47 %
26.05.2017 23:00 15,9 C 22,2 C 73 % 1018,6 hPa 0,0 l/m 1,3 km/h (1 Bft) O-SO 0,00 h 0,000 mm 0,0 UV-I 0 W/m 11,0 C 15,9 C 2,3 km/h (1 Bft) 95,99 %
27.05.2017 00:00 16,1 C 22,2 C 74 % 1018,9 hPa 0,0 l/m 0,1 km/h (0 Bft) O-SO 0,00 h 0,000 mm 0,0 UV-I 0 W/m 11,4 C 16,1 C 0,6 km/h (0 Bft) 92,38 %
27.05.2017 01:00 14,9 C 22,2 C 80 % 1019,0 hPa 0,0 l/m 1,4 km/h (1 Bft) O-SO 0,00 h 0,000 mm 0,0 UV-I 0 W/m 11,4 C 14,9 C 2,5 km/h (1 Bft) 96,90 %
27.05.2017 02:00 13,7 C 22,2 C 84 % 1018,9 hPa 0,0 l/m 1,3 km/h (1 Bft) S-SO 0,00 h 0,000 mm 0,0 UV-I 0 W/m 11,0 C 13,7 C 2,6 km/h (1 Bft) 98,53 %
27.05.2017 03:00 12,8 C 22,1 C 86 % 1019,1 hPa 0,0 l/m 1,7 km/h (1 Bft) S-SO 0,00 h 0,000 mm 0,0 UV-I 0 W/m 10,5 C 12,8 C 3,2 km/h (1 Bft) 95,75 %
27.05.2017 04:00 12,7 C 21,7 C 86 % 1019,2 hPa 0,0 l/m 2,8 km/h (1 Bft) S-SW 0,00 h 0,000 mm 0,0 UV-I 5 W/m 10,4 C 12,7 C 4,1 km/h (1 Bft) 97,85 %
27.05.2017 05:00 12,0 C 21,7 C 88 % 1019,3 hPa 0,0 l/m 2,2 km/h (1 Bft) S-SW 0,23 h 0,000 mm 0,0 UV-I 22 W/m 10,0 C 12,0 C 4,2 km/h (1 Bft) 96,99 %
27.05.2017 06:00 12,9 C 21,7 C 85 % 1019,6 hPa 0,0 l/m 2,9 km/h (1 Bft) S-SW 0,60 h 0,025 mm 0,0 UV-I 118 W/m 10,5 C 12,9 C 4,8 km/h (1 Bft) 97,50 %
27.05.2017 07:00 15,3 C 21,7 C 78 % 1019,8 hPa 0,0 l/m 1,9 km/h (1 Bft) W-SW 1,00 h 0,077 mm 0,7 UV-I 289 W/m 11,4 C 15,3 C 3,7 km/h (1 Bft) 95,36 %
27.05.2017 08:00 17,6 C 21,7 C 71 % 1020,0 hPa 0,0 l/m 2,7 km/h (1 Bft) W-SW 1,00 h 0,152 mm 1,4 UV-I 462 W/m 12,2 C 17,6 C 4,7 km/h (1 Bft) 98,75 %
27.05.2017 09:00 19,3 C 22,0 C 67 % 1020,1 hPa 0,0 l/m 5,9 km/h (2 Bft) O-NO 1,00 h 0,279 mm 2,6 UV-I 624 W/m 13,1 C 19,2 C 9,8 km/h (2 Bft) 96,58 %
27.05.2017 10:00 20,7 C 22,2 C 64 % 1020,1 hPa 0,0 l/m 5,8 km/h (2 Bft) NO 1,00 h 0,381 mm 4,0 UV-I 759 W/m 13,7 C 20,5 C 10,2 km/h (2 Bft) 95,50 %
27.05.2017 11:00 22,0 C 22,2 C 59 % 1020,0 hPa 0,0 l/m 6,9 km/h (2 Bft) O-NO 1,00 h 0,483 mm 5,3 UV-I 856 W/m 13,6 C 21,7 C 12,2 km/h (3 Bft) 96,91 %
27.05.2017 12:00 23,0 C 22,7 C 52 % 1020,0 hPa 0,0 l/m 5,6 km/h (1 Bft) NO 1,00 h 0,559 mm 6,0 UV-I 906 W/m 12,5 C 22,8 C 10,2 km/h (2 Bft) 98,48 %
27.05.2017 13:00 23,9 C 23,0 C 47 % 1019,7 hPa 0,0 l/m 7,7 km/h (2 Bft) O-NO 1,00 h 0,584 mm 6,0 UV-I 906 W/m 11,9 C 23,4 C 13,3 km/h (3 Bft) 96,03 %
27.05.2017 14:00 24,5 C 23,3 C 46 % 1019,3 hPa 0,0 l/m 10,2 km/h (2 Bft) O-NO 1,00 h 0,610 mm 5,3 UV-I 852 W/m 12,0 C 23,6 C 16,7 km/h (3 Bft) 96,37 %
27.05.2017 15:00 25,0 C 23,7 C 44 % 1018,9 hPa 0,0 l/m 9,8 km/h (2 Bft) NO 1,00 h 0,609 mm 4,1 UV-I 755 W/m 12,0 C 24,2 C 15,8 km/h (3 Bft) 96,96 %
27.05.2017 16:00 25,2 C 23,9 C 44 % 1018,5 hPa 0,0 l/m 11,9 km/h (2 Bft) O-NO 1,00 h 0,559 mm 2,8 UV-I 616 W/m 11,9 C 24,0 C 18,2 km/h (3 Bft) 98,30 %
27.05.2017 17:00 25,1 C 23,9 C 43 % 1018,2 hPa 0,0 l/m 11,4 km/h (2 Bft) O-NO 1,00 h 0,483 mm 1,6 UV-I 457 W/m 11,7 C 24,0 C 16,7 km/h (3 Bft) 96,67 %
27.05.2017 18:00 24,7 C 23,9 C 45 % 1018,2 hPa 0,0 l/m 11,0 km/h (2 Bft) O-NO 1,00 h 0,381 mm 0,7 UV-I 282 W/m 11,9 C 23,6 C 17,0 km/h (3 Bft) 95,76 %
27.05.2017 19:00 23,7 C 23,9 C 48 % 1018,1 hPa 0,0 l/m 8,8 km/h (2 Bft) O-NO 1,00 h 0,279 mm 0,0 UV-I 126 W/m 12,1 C 23,1 C 13,9 km/h (3 Bft) 97,06 %
27.05.2017 20:00 21,7 C 23,9 C 54 % 1018,3 hPa 0,0 l/m 5,9 km/h (2 Bft) O-NO 0,53 h 0,152 mm 0,0 UV-I 26 W/m 12,1 C 21,6 C 9,1 km/h (2 Bft) 98,00 %
27.05.2017 21:00 20,0 C 23,9 C 59 % 1018,8 hPa 0,0 l/m 5,7 km/h (1 Bft) O 0,00 h 0,051 mm 0,0 UV-I 5 W/m 11,7 C 19,8 C 8,6 km/h (2 Bft) 96,90 %
27.05.2017 22:00 18,8 C 23,5 C 62 % 1019,4 hPa 0,0 l/m 6,9 km/h (2 Bft) O-NO 0,00 h 0,051 mm 0,0 UV-I 0 W/m 11,5 C 18,3 C 10,7 km/h (2 Bft) 96,02 %
27.05.2017 23:00 18,0 C 23,3 C 64 % 1019,8 hPa 0,0 l/m 14,7 km/h (3 Bft) O-NO 0,00 h 0,051 mm 0,0 UV-I 0 W/m 11,2 C 14,9 C 21,0 km/h (4 Bft) 97,48 %
28.05.2017 00:00 17,1 C 23,1 C 66 % 1020,0 hPa 0,0 l/m 15,4 km/h (3 Bft) O-NO 0,00 h 0,000 mm 0,0 UV-I 0 W/m 10,6 C 13,6 C 22,5 km/h (4 Bft) 98,27 %
28.05.2017 01:00 15,9 C 22,8 C 68 % 1020,1 hPa 0,0 l/m 10,6 km/h (2 Bft) O-NO 0,00 h 0,076 mm 0,0 UV-I 0 W/m 10,0 C 14,0 C 16,4 km/h (3 Bft) 96,85 %
28.05.2017 02:00 14,6 C 22,8 C 72 % 1020,2 hPa 0,0 l/m 8,8 km/h (2 Bft) O-NO 0,00 h 0,051 mm 0,0 UV-I 0 W/m 9,6 C 13,3 C 13,8 km/h (3 Bft) 96,15 %
28.05.2017 03:00 14,4 C 22,4 C 72 % 1020,1 hPa 0,0 l/m 12,0 km/h (2 Bft) O-NO 0,00 h 0,025 mm 0,0 UV-I 0 W/m 9,4 C 11,6 C 18,1 km/h (3 Bft) 97,14 %
28.05.2017 04:00 13,5 C 22,2 C 76 % 1019,9 hPa 0,0 l/m 7,0 km/h (2 Bft) O-NO 0,00 h 0,051 mm 0,0 UV-I 5 W/m 9,3 C 12,9 C 11,6 km/h (2 Bft) 97,43 %
28.05.2017 05:00 12,8 C 22,2 C 79 % 1020,0 hPa 0,0 l/m 5,4 km/h (1 Bft) O-NO 0,60 h 0,026 mm 0,0 UV-I 29 W/m 9,2 C 12,7 C 8,3 km/h (2 Bft) 95,64 %
28.05.2017 06:00 13,7 C 22,2 C 77 % 1020,1 hPa 0,0 l/m 7,8 km/h (2 Bft) O-NO 0,77 h 0,025 mm 0,0 UV-I 127 W/m 9,7 C 12,8 C 12,8 km/h (3 Bft) 97,88 %
28.05.2017 07:00 15,7 C 22,1 C 70 % 1020,2 hPa 0,0 l/m 12,4 km/h (3 Bft) O-NO 1,00 h 0,102 mm 0,7 UV-I 307 W/m 10,2 C 13,0 C 18,1 km/h (3 Bft) 97,48 %
28.05.2017 08:00 17,3 C 22,0 C 66 % 1020,3 hPa 0,0 l/m 11,6 km/h (2 Bft) O-NO 1,00 h 0,203 mm 1,5 UV-I 483 W/m 10,7 C 15,1 C 17,0 km/h (3 Bft) 96,36 %
28.05.2017 09:00 19,0 C 22,2 C 63 % 1020,2 hPa 0,0 l/m 10,1 km/h (2 Bft) O-NO 1,00 h 0,305 mm 2,8 UV-I 643 W/m 11,8 C 17,6 C 15,2 km/h (3 Bft) 95,87 %
28.05.2017 10:00 20,6 C 22,2 C 59 % 1020,0 hPa 0,0 l/m 10,2 km/h (2 Bft) O-NO 1,00 h 0,406 mm 4,3 UV-I 776 W/m 12,3 C 19,3 C 16,2 km/h (3 Bft) 97,41 %
28.05.2017 11:00 22,0 C 22,6 C 55 % 1019,9 hPa 0,0 l/m 12,8 km/h (3 Bft) O-NO 1,00 h 0,508 mm 5,6 UV-I 872 W/m 12,4 C 20,2 C 18,7 km/h (3 Bft) 95,97 %
28.05.2017 12:00 23,3 C 22,8 C 51 % 1019,6 hPa 0,0 l/m 14,0 km/h (3 Bft) O-NO 1,00 h 0,610 mm 6,5 UV-I 921 W/m 12,7 C 21,5 C 19,7 km/h (3 Bft) 94,70 %
28.05.2017 13:00 24,6 C 23,2 C 46 % 1019,1 hPa 0,0 l/m 13,0 km/h (3 Bft) O-NO 1,00 h 0,660 mm 6,5 UV-I 920 W/m 12,3 C 23,2 C 19,4 km/h (3 Bft) 97,18 %
28.05.2017 14:00 25,5 C 23,4 C 39 % 1018,6 hPa 0,0 l/m 12,5 km/h (3 Bft) NO 1,00 h 0,686 mm 5,8 UV-I 873 W/m 10,7 C 24,3 C 18,4 km/h (3 Bft) 98,59 %
28.05.2017 15:00 26,2 C 23,9 C 38 % 1018,1 hPa 0,0 l/m 12,1 km/h (2 Bft) O-NO 1,00 h 0,660 mm 4,5 UV-I 774 W/m 10,6 C 25,2 C 18,1 km/h (3 Bft) 98,11 %
28.05.2017 16:00 26,5 C 23,9 C 36 % 1017,7 hPa 0,0 l/m 12,2 km/h (2 Bft) O-NO 1,00 h 0,610 mm 3,1 UV-I 639 W/m 10,1 C 25,5 C 18,1 km/h (3 Bft) 96,01 %
28.05.2017 17:00 26,5 C 24,0 C 34 % 1017,3 hPa 0,0 l/m 10,5 km/h (2 Bft) O-NO 1,00 h 0,533 mm 1,7 UV-I 476 W/m 9,4 C 25,8 C 16,5 km/h (3 Bft) 98,23 %
28.05.2017 18:00 25,7 C 24,3 C 39 % 1016,9 hPa 0,0 l/m 12,5 km/h (3 Bft) O-NO 0,93 h 0,407 mm 0,8 UV-I 281 W/m 10,8 C 24,6 C 17,9 km/h (3 Bft) 97,23 %
28.05.2017 19:00 24,0 C 23,9 C 45 % 1016,8 hPa 0,0 l/m 9,2 km/h (2 Bft) O-NO 0,83 h 0,304 mm 0,0 UV-I 124 W/m 11,4 C 23,3 C 14,2 km/h (3 Bft) 98,23 %
28.05.2017 20:00 21,7 C 23,9 C 55 % 1016,6 hPa 0,0 l/m 8,1 km/h (2 Bft) O-NO 0,53 h 0,153 mm 0,0 UV-I 28 W/m 12,2 C 21,1 C 12,0 km/h (2 Bft) 95,02 %
28.05.2017 21:00 19,6 C 23,9 C 61 % 1017,0 hPa 0,0 l/m 3,9 km/h (1 Bft) O-NO 0,00 h 0,076 mm 0,0 UV-I 5 W/m 11,9 C 19,5 C 6,5 km/h (2 Bft) 98,51 %
28.05.2017 22:00 19,0 C 23,6 C 61 % 1017,1 hPa 0,0 l/m 9,4 km/h (2 Bft) O-NO 0,00 h 0,025 mm 0,0 UV-I 0 W/m 11,2 C 17,7 C 14,3 km/h (3 Bft) 97,75 %
28.05.2017 23:00 17,8 C 23,3 C 66 % 1017,1 hPa 0,0 l/m 5,2 km/h (1 Bft) O-NO 0,00 h 0,051 mm 0,0 UV-I 0 W/m 11,2 C 17,6 C 9,0 km/h (2 Bft) 99,10 %
Min-Datum _ 22.05.17 22.05.17 28.05.17 23.05.17 - 22.05.17 - - - - - 24.05.17 22.05.17 22.05.17 27.05.17
_ Min-Zeit 05:20 05:44 17:06 17:28 - 00:00 - - - - - 15:48 06:36 00:06 00:02
Minimum _ 8,2 C 19,4 C 31 % 1014,6 hPa - 0,0 km/h (0 Bft) - - - - - 6,3 C 7,0 C 0,0 km/h (0 Bft) 9,09 %
Max-Datum _ 28.05.17 28.05.17 25.05.17 22.05.17 24.05.17 24.05.17 - 26.05.17 28.05.17 28.05.17 25.05.17 23.05.17 28.05.17 24.05.17 22.05.17
_ Max-Zeit 17:10 17:52 05:30 00:00 21:38 14:00 - 06:44 14:02 12:36 13:48 12:10 17:14 15:46 00:30
Maximum _ 26,7 C 24,4 C 97 % 1021,8 hPa 2,8 l/m 30,7 km/h
W-SW (5 Bft)
- 0,13 h 0,686 mm 6,6 UV-I 1176 W/m 15,2 C 26,4 C 54,7 km/h
W (7 Bft)
100,00 %
Durchschnitt _ 17,2 C 21,5 C 66 % 1018,3 hPa #6,6 l/m 7,2 km/h (2 Bft) O-NO #78:52 h #35,128 mm 2,9 UV-I 414 W/m 10,3 C 16,4 C 11,9 km/h (2 Bft) 96,79 %